Time;durP1;ratioP1;P1;durP2;ratioP2;P2;SDS_P1;SDS_P2;PMS_P1;PMS_P2;Temp;Humidity;BMP_temperature;BMP_pressure;BME280_temperature;BME280_humidity;BME280_pressure;Samples;Min_cycle;Max_cycle;Signal;HPM_P1;HPM_P2
2023/05/02 03:58:07;;;;;;;4.68;2.90;;;;;;;14.82;49.05;100603.22;5605823;31;127133;-56
2023/05/02 04:01:14;;;;;;;5.93;2.80;;;;;;;14.82;49.05;100603.22;5603626;31;33547;-56
2023/05/02 04:04:17;;;;;;;5.93;2.60;;;;;;;14.45;59.00;100605.03;5603761;31;32060;-56
2023/05/02 04:07:20;;;;;;;4.47;2.58;;;;;;;14.58;58.71;100611.56;5602481;31;34310;-56
2023/05/02 04:10:23;;;;;;;9.02;3.03;;;;;;;14.60;51.79;100608.53;5603559;31;33144;-57
2023/05/02 04:13:27;;;;;;;6.03;3.55;;;;;;;14.49;56.29;100610.63;5603551;31;34383;-56
2023/05/02 04:16:30;;;;;;;6.78;3.00;;;;;;;14.44;53.57;100614.22;5603536;31;34326;-57
2023/05/02 04:19:33;;;;;;;10.45;2.53;;;;;;;14.40;56.53;100609.72;5603332;31;34340;-56
2023/05/02 04:22:38;;;;;;;6.28;3.00;;;;;;;14.43;54.95;100606.44;5603568;31;31949;-56
2023/05/02 04:25:40;;;;;;;7.12;2.70;;;;;;;14.63;54.64;100611.44;5603449;31;34523;-57
2023/05/02 04:28:43;;;;;;;3.87;2.80;;;;;;;14.65;52.21;100606.53;5603628;31;33607;-56
2023/05/02 04:31:47;;;;;;;6.12;3.40;;;;;;;14.66;53.04;100616.22;5603350;31;33309;-57
2023/05/02 04:34:50;;;;;;;6.47;3.10;;;;;;;14.71;51.25;100624.22;5603514;31;33369;-56
2023/05/02 04:37:52;;;;;;;6.45;3.08;;;;;;;14.73;56.56;100626.63;5603241;31;33783;-56
2023/05/02 04:40:55;;;;;;;5.50;2.67;;;;;;;15.01;51.10;100630.09;5602451;31;31625;-57
2023/05/02 04:43:59;;;;;;;4.75;2.90;;;;;;;14.90;58.50;100634.91;5603358;31;33587;-56
2023/05/02 04:47:03;;;;;;;4.70;2.92;;;;;;;14.87;54.09;100627.41;5603439;31;33290;-56
2023/05/02 04:50:06;;;;;;;7.37;3.37;;;;;;;14.83;53.45;100631.78;5603285;31;34369;-56
2023/05/02 04:53:10;;;;;;;5.40;3.62;;;;;;;14.98;52.73;100628.00;5603261;31;34285;-57
2023/05/02 04:56:12;;;;;;;7.65;3.10;;;;;;;15.20;54.69;100630.72;5591413;31;33036;-56
2023/05/02 04:59:15;;;;;;;5.80;3.05;;;;;;;15.18;54.09;100637.53;5583398;31;33538;-57
2023/05/02 05:02:17;;;;;;;8.10;3.40;;;;;;;15.17;54.26;100631.34;5584167;31;33273;-56
2023/05/02 05:05:20;;;;;;;4.37;3.30;;;;;;;15.24;61.86;100636.31;5582475;31;34329;-56
2023/05/02 05:08:23;;;;;;;5.78;3.28;;;;;;;15.29;54.17;100628.09;5574958;31;31746;-56
2023/05/02 05:11:26;;;;;;;6.78;3.00;;;;;;;15.47;57.80;100640.63;5569760;32;33577;-57
2023/05/02 05:14:30;;;;;;;5.78;3.15;;;;;;;15.53;55.87;100638.62;5570182;32;34148;-57
2023/05/02 05:17:33;;;;;;;7.35;3.78;;;;;;;15.58;55.91;100640.41;5569794;31;33566;-57
2023/05/02 05:20:35;;;;;;;6.95;3.50;;;;;;;15.71;60.27;100645.75;5569928;31;33512;-57
2023/05/02 05:23:38;;;;;;;7.25;3.33;;;;;;;15.88;54.09;100645.06;5569924;31;33596;-56
2023/05/02 05:26:41;;;;;;;8.05;3.70;;;;;;;15.96;53.10;100651.66;5569573;31;33541;-56
2023/05/02 05:29:44;;;;;;;12.43;3.55;;;;;;;16.18;53.19;100648.88;5569019;31;31667;-56
2023/05/02 05:32:46;;;;;;;5.55;3.12;;;;;;;16.21;54.40;100653.69;5569217;32;33590;-56
2023/05/02 05:35:49;;;;;;;7.15;3.72;;;;;;;16.26;65.03;100660.87;5569238;32;33972;-57
2023/05/02 05:38:51;;;;;;;9.38;3.97;;;;;;;16.43;60.55;100652.03;5569473;31;34175;-57
2023/05/02 05:41:53;;;;;;;7.37;4.43;;;;;;;16.45;56.55;100655.22;5569535;31;34560;-56
2023/05/02 05:44:56;;;;;;;6.75;3.92;;;;;;;16.51;52.01;100653.16;5569676;32;34266;-56
2023/05/02 05:47:59;;;;;;;7.45;4.20;;;;;;;16.66;52.52;100669.78;5569846;31;34300;-56
2023/05/02 05:51:05;;;;;;;8.05;3.92;;;;;;;16.75;59.28;100674.44;5569528;31;33752;-57
2023/05/02 05:54:08;;;;;;;10.43;4.35;;;;;;;16.87;58.47;100672.72;5569345;32;33417;-57
2023/05/02 05:57:10;;;;;;;10.30;4.22;;;;;;;17.06;53.41;100669.75;5572843;31;33561;-57
2023/05/02 06:00:13;;;;;;;8.50;4.35;;;;;;;17.20;57.27;100668.81;5587386;31;33595;-56
2023/05/02 06:03:16;;;;;;;6.75;4.25;;;;;;;17.18;51.34;100674.53;5583690;31;34199;-58
2023/05/02 06:06:20;;;;;;;7.22;4.28;;;;;;;17.22;52.57;100672.81;5569079;31;33288;-57
2023/05/02 06:09:22;;;;;;;6.45;4.32;;;;;;;17.29;50.18;100669.62;5578426;31;31741;-56
2023/05/02 06:12:25;;;;;;;8.52;4.30;;;;;;;17.36;51.95;100673.44;5571903;31;33568;-57
2023/05/02 06:15:28;;;;;;;10.40;4.85;;;;;;;17.45;54.75;100669.91;5588327;31;33647;-56
2023/05/02 06:18:31;;;;;;;7.32;4.43;;;;;;;17.45;51.44;100670.75;5587256;31;33604;-57
2023/05/02 06:21:36;;;;;;;9.27;4.60;;;;;;;17.60;60.78;100681.09;5584434;31;33658;-56
2023/05/02 06:24:39;;;;;;;8.75;4.00;;;;;;;17.64;52.15;100666.88;5572186;31;33789;-56
2023/05/02 06:27:41;;;;;;;11.23;4.82;;;;;;;17.67;60.20;100677.87;5588722;31;33884;-56
2023/05/02 06:30:43;;;;;;;10.63;4.10;;;;;;;17.73;52.15;100670.41;5581423;31;33486;-56
2023/05/02 06:33:45;;;;;;;12.90;5.07;;;;;;;17.72;61.91;100677.75;5577649;31;33660;-57
2023/05/02 06:36:48;;;;;;;8.77;4.85;;;;;;;17.81;52.17;100675.84;5573367;31;34257;-56
2023/05/02 06:39:50;;;;;;;10.65;4.60;;;;;;;17.86;50.33;100671.37;5577643;31;34239;-57
2023/05/02 06:42:53;;;;;;;13.73;4.32;;;;;;;17.88;54.55;100678.06;5586949;31;34223;-57
2023/05/02 06:45:56;;;;;;;6.10;4.30;;;;;;;17.92;51.64;100678.22;5587004;31;34308;-57
2023/05/02 06:48:58;;;;;;;9.50;4.50;;;;;;;17.99;53.98;100675.81;5587974;31;33645;-57
2023/05/02 06:52:01;;;;;;;8.05;4.55;;;;;;;18.20;51.07;100678.63;5583503;31;34066;-57
2023/05/02 06:55:04;;;;;;;8.88;4.50;;;;;;;18.25;48.44;100673.81;5571294;31;33683;-57
2023/05/02 06:58:06;;;;;;;6.95;3.67;;;;;;;18.36;49.77;100685.13;5569137;32;33704;-59
2023/05/02 07:01:09;;;;;;;7.87;4.12;;;;;;;18.35;51.77;100671.88;5577635;31;33612;-59
2023/05/02 07:04:11;;;;;;;9.98;4.60;;;;;;;18.58;49.86;100677.84;5568675;31;34329;-59
2023/05/02 07:07:17;;;;;;;6.80;3.87;;;;;;;18.53;49.16;100674.19;5568331;31;33565;-59
2023/05/02 07:10:19;;;;;;;5.40;3.97;;;;;;;18.56;52.64;100683.59;5568537;31;33715;-58
2023/05/02 07:13:22;;;;;;;9.23;4.37;;;;;;;18.66;52.55;100677.00;5568481;32;34116;-59
2023/05/02 07:16:24;;;;;;;9.48;4.28;;;;;;;18.64;47.61;100674.63;5567546;32;34249;-59
2023/05/02 07:19:27;;;;;;;8.10;3.72;;;;;;;18.74;50.61;100679.72;5583737;31;33580;-59
2023/05/02 07:22:29;;;;;;;7.97;3.83;;;;;;;18.71;55.98;100679.53;5588161;31;33548;-59
2023/05/02 07:25:31;;;;;;;9.25;3.85;;;;;;;18.82;54.81;100682.72;5578644;31;34310;-59
2023/05/02 07:28:33;;;;;;;6.60;4.00;;;;;;;18.87;49.28;100671.63;5576495;31;33683;-59
2023/05/02 07:31:36;;;;;;;8.20;3.87;;;;;;;18.80;49.53;100676.78;5568289;31;33548;-59
2023/05/02 07:34:38;;;;;;;9.25;3.80;;;;;;;18.84;49.53;100683.97;5568307;32;34223;-60
2023/05/02 07:37:40;;;;;;;11.57;4.15;;;;;;;18.97;51.55;100685.66;5568441;32;33750;-59
2023/05/02 07:40:43;;;;;;;6.78;4.00;;;;;;;19.05;48.37;100683.22;5581507;31;34270;-59
2023/05/02 07:43:45;;;;;;;7.15;4.20;;;;;;;19.07;49.75;100692.59;5588080;31;33667;-59
2023/05/02 07:46:48;;;;;;;10.75;4.62;;;;;;;19.06;46.99;100685.59;5587680;31;34338;-59
2023/05/02 07:49:52;;;;;;;7.62;4.00;;;;;;;19.13;52.13;100688.56;5586500;31;33409;-59
2023/05/02 07:52:55;;;;;;;6.45;4.28;;;;;;;19.31;51.45;100693.91;5579896;31;33836;-58
2023/05/02 07:55:57;;;;;;;7.78;3.80;;;;;;;19.28;48.65;100689.13;5567714;32;34514;-59
2023/05/02 07:58:59;;;;;;;12.00;4.75;;;;;;;19.25;51.69;100690.56;5584859;31;34346;-59
2023/05/02 08:02:03;;;;;;;8.80;3.97;;;;;;;19.29;49.38;100682.56;5587634;31;34240;-59
2023/05/02 08:05:06;;;;;;;7.37;4.15;;;;;;;19.32;48.10;100681.91;5583980;31;33914;-59
2023/05/02 08:08:09;;;;;;;5.30;4.15;;;;;;;19.37;51.75;100681.69;5579835;31;33622;-60
2023/05/02 08:11:11;;;;;;;10.15;4.60;;;;;;;19.38;50.41;100686.00;5577111;31;33668;-59
2023/05/02 08:14:15;;;;;;;10.75;4.03;;;;;;;19.31;48.28;100680.31;5576202;31;33537;-59
2023/05/02 08:17:17;;;;;;;8.63;4.35;;;;;;;19.19;52.91;100689.97;5575176;31;33652;-59
2023/05/02 08:20:21;;;;;;;7.95;4.62;;;;;;;19.24;50.44;100697.94;5570593;31;34231;-60
2023/05/02 08:23:23;;;;;;;9.32;4.60;;;;;;;19.10;48.65;100697.38;5572899;31;33977;-59
2023/05/02 08:26:26;;;;;;;7.95;4.43;;;;;;;19.11;48.63;100693.56;5584046;31;34343;-60
2023/05/02 08:29:30;;;;;;;8.93;4.25;;;;;;;19.24;50.33;100686.28;5580128;31;33574;-59
2023/05/02 08:32:32;;;;;;;9.82;4.55;;;;;;;19.36;53.85;100690.97;5577303;31;33668;-59
2023/05/02 08:35:35;;;;;;;9.48;4.57;;;;;;;19.37;50.21;100687.13;5583629;31;34308;-61
2023/05/02 08:38:37;;;;;;;5.25;4.53;;;;;;;19.35;49.96;100678.50;5567022;31;33670;-60
2023/05/02 08:41:39;;;;;;;6.87;4.07;;;;;;;19.40;46.10;100672.88;5566862;32;33681;-59
2023/05/02 08:44:42;;;;;;;6.75;3.90;;;;;;;19.43;49.21;100664.03;5569618;31;33583;-59
2023/05/02 08:47:45;;;;;;;5.32;3.83;;;;;;;19.50;48.99;100672.47;5576201;31;33729;-59
2023/05/02 08:50:49;;;;;;;8.32;3.30;;;;;;;19.62;52.60;100679.88;5573771;31;33570;-59
2023/05/02 08:53:53;;;;;;;6.30;3.67;;;;;;;19.64;49.62;100670.31;5572717;31;33978;-60
2023/05/02 08:56:58;;;;;;;6.65;4.05;;;;;;;19.76;48.12;100676.91;5579420;31;34262;-59
2023/05/02 09:00:00;;;;;;;6.10;3.50;;;;;;;19.86;46.98;100662.88;5584801;31;34401;-57
2023/05/02 09:03:30;;;;;;;6.45;4.00;;;;;;;19.95;47.28;100666.31;5575044;31;34311;-56
2023/05/02 09:06:33;;;;;;;7.15;3.87;;;;;;;19.97;47.70;100663.25;5579440;31;33878;-57
2023/05/02 09:09:36;;;;;;;7.57;3.95;;;;;;;19.99;47.35;100656.34;5575947;31;33254;-57
2023/05/02 09:12:39;;;;;;;4.07;3.45;;;;;;;20.18;49.21;100659.31;5582730;31;34324;-57
2023/05/02 09:15:41;;;;;;;7.37;3.40;;;;;;;20.17;47.76;100657.75;5586266;31;34553;-56
2023/05/02 09:18:47;;;;;;;6.18;3.22;;;;;;;20.28;46.62;100657.31;5583380;31;33732;-57
2023/05/02 09:21:49;;;;;;;6.93;3.42;;;;;;;20.29;47.22;100658.88;5580173;31;33644;-57
2023/05/02 09:24:56;;;;;;;6.65;3.50;;;;;;;20.37;45.28;100658.00;5570165;31;33681;-57
2023/05/02 09:28:00;;;;;;;3.97;3.15;;;;;;;20.36;45.63;100649.03;5572669;31;33881;-57
2023/05/02 09:31:08;;;;;;;7.03;3.40;;;;;;;20.37;46.31;100649.84;5585977;31;33627;-57
2023/05/02 09:34:16;;;;;;;8.77;3.78;;;;;;;20.50;44.97;100650.63;5583861;31;34360;-57
2023/05/02 09:37:34;;;;;;;7.45;3.60;;;;;;;20.57;46.10;100656.34;5581527;31;35184;-56
2023/05/02 09:40:37;;;;;;;6.50;3.53;;;;;;;20.70;44.17;100654.41;5588328;31;33649;-57
2023/05/02 09:43:40;;;;;;;6.50;3.90;;;;;;;20.65;45.46;100658.13;5576613;31;33225;-57
2023/05/02 09:46:44;;;;;;;8.93;3.70;;;;;;;20.65;45.07;100653.47;5583099;31;33584;-57
2023/05/02 09:49:48;;;;;;;6.22;3.50;;;;;;;20.72;45.30;100652.91;5577226;31;33604;-56
2023/05/02 09:53:04;;;;;;;7.40;3.47;;;;;;;20.78;44.92;100645.31;5585201;31;33766;-56
2023/05/02 09:56:07;;;;;;;7.00;3.42;;;;;;;20.84;44.47;100633.03;5587663;31;34403;-57
2023/05/02 09:59:13;;;;;;;11.68;3.20;;;;;;;21.03;47.78;100644.13;5588309;31;33579;-56
2023/05/02 10:02:16;;;;;;;4.50;2.97;;;;;;;21.14;42.82;100633.53;5587116;31;34300;-56
2023/05/02 10:05:20;;;;;;;6.95;3.55;;;;;;;21.21;44.32;100644.66;5587854;31;34303;-57
2023/05/02 10:08:26;;;;;;;6.60;3.65;;;;;;;21.17;44.41;100653.87;5588878;31;33591;-56
2023/05/02 10:11:31;;;;;;;6.37;3.10;;;;;;;21.15;44.27;100653.41;5586405;31;33828;-57
2023/05/02 10:14:40;;;;;;;7.45;3.30;;;;;;;21.18;43.16;100652.72;5574875;31;33728;-55
2023/05/02 10:17:47;;;;;;;9.57;3.40;;;;;;;21.18;43.39;100648.06;5569528;31;33523;-54
2023/05/02 10:21:06;;;;;;;7.12;3.55;;;;;;;21.22;43.46;100638.03;5573492;31;33304;-54
2023/05/02 10:24:10;;;;;;;6.10;3.33;;;;;;;21.28;43.51;100633.94;5569107;32;34300;-55
2023/05/02 10:27:13;;;;;;;5.53;3.50;;;;;;;21.18;42.83;100633.63;5568623;32;33775;-55
2023/05/02 10:30:16;;;;;;;6.75;3.25;;;;;;;21.24;45.24;100632.25;5576336;31;33749;-55
2023/05/02 10:33:20;;;;;;;4.03;3.17;;;;;;;21.23;43.97;100636.13;5587178;31;34107;-56
2023/05/02 10:36:23;;;;;;;6.82;3.45;;;;;;;21.26;43.32;100630.00;5586396;31;34298;-54
2023/05/02 10:39:26;;;;;;;5.82;3.17;;;;;;;21.33;43.15;100635.62;5579698;31;33122;-55
2023/05/02 10:42:29;;;;;;;8.60;3.30;;;;;;;21.37;44.28;100631.09;5586988;31;33822;-55
2023/05/02 10:45:33;;;;;;;9.10;3.45;;;;;;;21.42;43.35;100628.13;5587071;31;32386;-54
2023/05/02 10:48:37;;;;;;;5.65;3.50;;;;;;;21.38;43.13;100629.97;5587265;31;33535;-55
2023/05/02 10:51:41;;;;;;;7.12;3.67;;;;;;;21.29;43.17;100626.53;5583807;31;34102;-55
2023/05/02 10:54:43;;;;;;;9.65;3.70;;;;;;;21.21;43.31;100625.56;5577711;31;33668;-54
2023/05/02 10:57:58;;;;;;;7.45;3.97;;;;;;;21.25;43.74;100622.94;5579615;31;33499;-54
2023/05/02 11:01:29;;;;;;;8.77;3.47;;;;;;;21.17;43.36;100616.50;5583731;31;33671;-55
2023/05/02 11:05:01;;;;;;;10.63;3.60;;;;;;;21.20;44.12;100617.75;5577244;31;33744;-55
2023/05/02 11:08:29;;;;;;;7.50;4.03;;;;;;;21.32;42.38;100610.31;5579496;31;34425;-55
2023/05/02 11:11:41;;;;;;;5.78;3.45;;;;;;;21.28;44.99;100600.44;5584663;31;33758;-55
2023/05/02 11:14:46;;;;;;;6.85;3.47;;;;;;;21.30;44.08;100598.16;5586840;31;33585;-55
2023/05/02 11:18:15;;;;;;;5.93;3.55;;;;;;;21.39;44.99;100587.94;5585833;31;34261;-56
2023/05/02 11:21:29;;;;;;;7.57;3.60;;;;;;;21.52;44.98;100594.91;5565949;31;34389;-56
2023/05/02 11:24:39;;;;;;;8.65;3.95;;;;;;;21.65;44.41;100586.63;5582869;31;33832;-55
2023/05/02 11:27:44;;;;;;;6.60;3.50;;;;;;;21.69;44.22;100582.87;5569858;31;33712;-55
2023/05/02 11:30:47;;;;;;;9.73;3.80;;;;;;;21.72;43.71;100581.38;5567953;32;33760;-55
2023/05/02 11:33:56;;;;;;;6.00;4.15;;;;;;;21.72;44.23;100584.09;5569777;31;33604;-55
2023/05/02 11:36:58;;;;;;;9.43;4.00;;;;;;;21.68;44.29;100586.72;5584097;31;33716;-55
2023/05/02 11:40:13;;;;;;;10.23;3.28;;;;;;;21.67;44.62;100582.44;5577754;31;33198;-56
2023/05/02 11:43:18;;;;;;;6.18;3.12;;;;;;;21.60;41.66;100581.47;5581952;31;33560;-55
2023/05/02 11:46:20;;;;;;;7.40;3.60;;;;;;;21.57;42.73;100577.47;5584874;31;34963;-55
2023/05/02 11:49:23;;;;;;;8.10;3.72;;;;;;;21.49;43.51;100584.69;5586000;31;33715;-55
2023/05/02 11:52:25;;;;;;;10.00;3.80;;;;;;;21.50;43.79;100585.47;5581909;31;33561;-55
2023/05/02 11:55:27;;;;;;;11.60;3.80;;;;;;;21.51;44.18;100571.47;5580858;31;34049;-55
2023/05/02 11:58:32;;;;;;;6.40;3.45;;;;;;;21.69;42.60;100571.97;5581152;31;34332;-55
2023/05/02 12:01:35;;;;;;;6.40;3.20;;;;;;;21.80;42.16;100574.97;5583847;31;34405;-56
2023/05/02 12:04:44;;;;;;;5.75;3.10;;;;;;;21.83;42.75;100571.53;5581234;31;34154;-56
2023/05/02 12:07:49;;;;;;;5.20;2.83;;;;;;;21.97;40.94;100568.38;5579176;31;33735;-55
2023/05/02 12:10:55;;;;;;;10.73;2.90;;;;;;;21.91;42.37;100567.81;5580745;31;34438;-57
2023/05/02 12:13:57;;;;;;;13.52;3.05;;;;;;;21.78;40.30;100567.13;5586743;31;33781;-55
2023/05/02 12:17:01;;;;;;;8.25;3.20;;;;;;;21.74;39.70;100568.97;5579616;31;34316;-55
2023/05/02 12:20:06;;;;;;;5.70;2.90;;;;;;;21.94;40.77;100563.59;5580777;31;33625;-55
2023/05/02 12:23:09;;;;;;;9.82;3.05;;;;;;;21.99;39.81;100566.88;5579349;31;33626;-56
2023/05/02 12:26:18;;;;;;;7.40;2.92;;;;;;;22.08;39.48;100565.87;5585724;31;34543;-55
2023/05/02 12:29:21;;;;;;;7.75;2.92;;;;;;;22.28;39.69;100565.66;5588324;31;33654;-56
2023/05/02 12:32:31;;;;;;;8.20;3.40;;;;;;;22.31;38.96;100550.47;5590225;31;33764;-55
2023/05/02 12:35:35;;;;;;;9.40;3.08;;;;;;;22.34;40.05;100549.75;5588398;31;34447;-55
2023/05/02 12:38:37;;;;;;;7.87;3.17;;;;;;;22.33;38.82;100550.91;5589526;31;34227;-56
2023/05/02 12:41:44;;;;;;;9.80;3.05;;;;;;;22.42;40.31;100550.75;5588556;31;34456;-56
2023/05/02 12:44:50;;;;;;;10.45;3.50;;;;;;;22.41;38.15;100562.78;5588269;31;33658;-55
2023/05/02 12:47:52;;;;;;;7.93;3.10;;;;;;;22.44;38.42;100562.87;5587002;31;33562;-56
2023/05/02 12:50:55;;;;;;;8.10;2.92;;;;;;;22.34;38.00;100557.94;5589104;31;33432;-56
2023/05/02 12:53:57;;;;;;;11.63;3.05;;;;;;;22.36;38.96;100563.88;5587817;31;33546;-56
2023/05/02 12:57:01;;;;;;;16.62;3.85;;;;;;;22.30;39.46;100556.31;5577804;31;33860;-55
2023/05/02 13:00:05;;;;;;;;;;;;;;;22.24;39.07;100562.03;5589222;31;33610;-55
2023/05/02 13:03:09;;;;;;;10.18;3.65;;;;;;;22.21;40.14;100543.62;5588452;31;34629;-55
2023/05/02 13:06:11;;;;;;;17.17;3.33;;;;;;;22.19;41.07;100547.88;5588669;31;33709;-55
2023/05/02 13:09:14;;;;;;;8.75;3.20;;;;;;;22.24;39.50;100545.63;5588842;31;33616;-55
2023/05/02 13:12:16;;;;;;;12.98;3.87;;;;;;;22.21;39.67;100548.28;5588489;31;33844;-55
2023/05/02 13:15:19;;;;;;;7.95;3.15;;;;;;;22.01;40.45;100544.66;5588683;31;33648;-56
2023/05/02 13:18:22;;;;;;;9.65;3.28;;;;;;;21.94;41.48;100539.03;5588191;31;34316;-56
2023/05/02 13:21:24;;;;;;;9.93;3.72;;;;;;;21.85;40.97;100539.22;5588889;31;34326;-55
2023/05/02 13:24:26;;;;;;;9.38;3.47;;;;;;;21.83;40.40;100533.31;5588622;31;33725;-55
2023/05/02 13:27:29;;;;;;;10.05;3.42;;;;;;;21.82;41.42;100539.94;5588441;31;34310;-56
2023/05/02 13:30:32;;;;;;;10.05;3.58;;;;;;;21.75;41.02;100540.53;5588493;31;33342;-55
2023/05/02 13:33:34;;;;;;;10.82;3.47;;;;;;;21.78;41.55;100528.13;5587685;31;33715;-55
2023/05/02 13:36:42;;;;;;;11.02;3.30;;;;;;;21.88;40.49;100535.00;5588912;31;33673;-55
2023/05/02 13:39:45;;;;;;;6.78;3.00;;;;;;;21.86;40.61;100531.84;5588132;31;33630;-55
2023/05/02 13:42:47;;;;;;;11.80;3.40;;;;;;;21.93;41.50;100534.72;5588040;31;33830;-55
2023/05/02 13:45:51;;;;;;;12.63;3.95;;;;;;;21.95;40.42;100526.97;5587474;31;31914;-56
2023/05/02 13:48:53;;;;;;;10.75;3.75;;;;;;;21.93;40.53;100532.78;5588051;31;34334;-55
2023/05/02 13:51:55;;;;;;;12.20;3.53;;;;;;;22.01;42.73;100528.28;5587229;31;33345;-55
2023/05/02 13:54:57;;;;;;;12.93;3.47;;;;;;;21.98;40.97;100529.00;5588100;31;34267;-56
2023/05/02 13:58:00;;;;;;;11.23;3.62;;;;;;;21.94;41.72;100533.59;5587318;31;33684;-55
2023/05/02 14:01:03;;;;;;;14.25;3.75;;;;;;;21.98;43.73;100529.78;5588128;31;33685;-56
2023/05/02 14:04:07;;;;;;;11.02;4.00;;;;;;;22.06;40.99;100530.75;5588341;31;33577;-56
2023/05/02 14:07:10;;;;;;;11.12;3.55;;;;;;;22.02;38.90;100522.50;5587942;31;33606;-55
2023/05/02 14:10:12;;;;;;;8.10;3.28;;;;;;;22.03;41.08;100534.97;5587648;31;33784;-55
2023/05/02 14:13:15;;;;;;;14.70;4.07;;;;;;;22.03;39.36;100526.78;5587567;31;33636;-56
2023/05/02 14:16:17;;;;;;;13.70;3.90;;;;;;;22.01;40.79;100526.34;5587498;31;34319;-56
2023/05/02 14:19:19;;;;;;;14.40;3.58;;;;;;;22.02;40.17;100524.44;5587897;31;34361;-58
2023/05/02 14:22:22;;;;;;;14.60;4.15;;;;;;;22.01;40.56;100529.06;5588146;31;34260;-55
2023/05/02 14:25:24;;;;;;;14.65;3.50;;;;;;;22.03;41.06;100528.75;5587085;31;34298;-54
2023/05/02 14:28:26;;;;;;;17.60;4.45;;;;;;;21.98;38.81;100529.78;5578243;31;34405;-55
2023/05/02 14:31:29;;;;;;;16.10;4.45;;;;;;;22.12;41.05;100525.81;5588117;31;33699;-55
2023/05/02 14:34:34;;;;;;;;;;;;;;;22.07;39.33;100523.34;5588654;31;33740;-56
2023/05/02 14:37:36;;;;;;;12.70;3.55;;;;;;;21.99;39.09;100519.69;5587113;31;34666;-57
2023/05/02 14:40:39;;;;;;;12.18;3.42;;;;;;;22.05;39.99;100529.97;5585538;31;33239;-55
2023/05/02 14:43:41;;;;;;;7.60;3.92;;;;;;;22.04;39.29;100528.37;5587956;31;33731;-55
2023/05/02 14:46:44;;;;;;;10.48;3.40;;;;;;;21.91;40.69;100529.63;5587916;31;34582;-56
2023/05/02 14:49:46;;;;;;;8.98;3.40;;;;;;;21.83;40.17;100530.59;5588272;31;33579;-56
2023/05/02 14:52:55;;;;;;;11.05;4.22;;;;;;;21.80;41.67;100542.22;5569366;31;33188;-54
2023/05/02 14:55:57;;;;;;;13.38;4.57;;;;;;;21.92;40.47;100538.59;5587958;31;34415;-56
2023/05/02 14:58:59;;;;;;;7.82;3.60;;;;;;;21.94;40.82;100539.03;5588484;31;33184;-55
2023/05/02 15:02:02;;;;;;;14.87;3.58;;;;;;;21.83;39.71;100538.00;5587719;31;34165;-55
2023/05/02 15:05:06;;;;;;;13.85;4.40;;;;;;;21.78;40.36;100533.56;5587347;31;33712;-55
2023/05/02 15:08:09;;;;;;;14.60;4.65;;;;;;;21.70;40.60;100531.81;5587466;31;33692;-55
2023/05/02 15:11:11;;;;;;;16.10;3.80;;;;;;;21.69;43.22;100541.97;5587624;31;34540;-55
2023/05/02 15:14:13;;;;;;;13.05;4.22;;;;;;;21.78;41.97;100552.69;5588289;31;34377;-55
2023/05/02 15:17:16;;;;;;;8.68;3.85;;;;;;;21.72;43.04;100545.91;5588084;31;33615;-55
2023/05/02 15:20:18;;;;;;;9.38;3.92;;;;;;;21.62;42.98;100540.97;5587060;31;34363;-56
2023/05/02 15:23:21;;;;;;;12.25;3.40;;;;;;;21.62;41.57;100532.78;5587271;31;33644;-55
2023/05/02 15:26:24;;;;;;;8.70;3.70;;;;;;;21.57;42.13;100531.13;5588092;31;33333;-55
2023/05/02 15:29:27;;;;;;;7.78;3.28;;;;;;;21.56;42.01;100524.09;5587747;31;34541;-56
2023/05/02 15:32:29;;;;;;;8.38;3.72;;;;;;;21.51;42.32;100530.56;5587251;31;33706;-56
2023/05/02 15:35:32;;;;;;;6.30;3.22;;;;;;;21.50;41.49;100525.47;5587843;31;33660;-57
2023/05/02 15:38:38;;;;;;;6.90;2.97;;;;;;;21.47;40.83;100526.97;5587467;31;33258;-56
